sensor_id;sensor_type;location;lat;lon;timestamp;P1;durP1;ratioP1;P2;durP2;ratioP2
14167;SDS011;7163;50.626;12.922;2024-01-25T01:16:25;21.00;;;5.33;;
14167;SDS011;7163;50.626;12.922;2024-01-25T01:21:26;21.63;;;4.77;;
14167;SDS011;7163;50.626;12.922;2024-01-25T01:26:26;19.50;;;5.50;;
14167;SDS011;7163;50.626;12.922;2024-01-25T01:31:26;19.17;;;4.53;;
14167;SDS011;7163;50.626;12.922;2024-01-25T01:36:28;19.80;;;5.60;;
14167;SDS011;7163;50.626;12.922;2024-01-25T01:41:28;23.17;;;5.13;;
14167;SDS011;7163;50.626;12.922;2024-01-25T01:46:31;25.37;;;5.13;;
14167;SDS011;7163;50.626;12.922;2024-01-25T01:51:43;18.67;;;4.27;;
14167;SDS011;7163;50.626;12.922;2024-01-25T01:56:44;24.87;;;5.10;;
14167;SDS011;7163;50.626;12.922;2024-01-25T02:01:45;18.40;;;4.77;;
14167;SDS011;7163;50.626;12.922;2024-01-25T02:06:46;18.23;;;4.47;;
14167;SDS011;7163;50.626;12.922;2024-01-25T02:11:46;16.20;;;4.33;;
14167;SDS011;7163;50.626;12.922;2024-01-25T02:16:47;16.77;;;5.17;;
14167;SDS011;7163;50.626;12.922;2024-01-25T02:21:48;16.20;;;5.03;;
14167;SDS011;7163;50.626;12.922;2024-01-25T02:26:49;17.57;;;5.50;;
14167;SDS011;7163;50.626;12.922;2024-01-25T02:31:50;26.80;;;5.30;;
14167;SDS011;7163;50.626;12.922;2024-01-25T02:36:50;20.87;;;4.90;;
14167;SDS011;7163;50.626;12.922;2024-01-25T02:41:50;20.37;;;5.17;;
14167;SDS011;7163;50.626;12.922;2024-01-25T02:46:51;25.93;;;5.40;;
14167;SDS011;7163;50.626;12.922;2024-01-25T02:51:53;15.37;;;4.27;;
14167;SDS011;7163;50.626;12.922;2024-01-25T02:56:54;19.77;;;5.37;;
14167;SDS011;7163;50.626;12.922;2024-01-25T03:01:54;17.03;;;4.57;;
14167;SDS011;7163;50.626;12.922;2024-01-25T03:06:55;18.23;;;5.00;;
14167;SDS011;7163;50.626;12.922;2024-01-25T03:11:55;22.37;;;4.97;;
14167;SDS011;7163;50.626;12.922;2024-01-25T03:37:37;21.33;;;5.50;;
14167;SDS011;7163;50.626;12.922;2024-01-25T03:42:38;17.80;;;4.77;;
14167;SDS011;7163;50.626;12.922;2024-01-25T03:47:38;19.43;;;5.83;;
14167;SDS011;7163;50.626;12.922;2024-01-25T03:52:39;24.33;;;5.93;;
14167;SDS011;7163;50.626;12.922;2024-01-25T03:57:39;17.83;;;5.70;;
14167;SDS011;7163;50.626;12.922;2024-01-25T04:02:40;29.93;;;5.53;;
14167;SDS011;7163;50.626;12.922;2024-01-25T04:07:41;23.93;;;6.90;;
14167;SDS011;7163;50.626;12.922;2024-01-25T04:12:42;28.30;;;5.63;;
14167;SDS011;7163;50.626;12.922;2024-01-25T04:17:42;21.20;;;4.53;;
14167;SDS011;7163;50.626;12.922;2024-01-25T04:22:43;25.67;;;6.47;;
14167;SDS011;7163;50.626;12.922;2024-01-25T04:27:43;21.13;;;5.23;;
14167;SDS011;7163;50.626;12.922;2024-01-25T04:32:44;23.23;;;6.07;;
14167;SDS011;7163;50.626;12.922;2024-01-25T04:37:46;28.43;;;6.00;;
14167;SDS011;7163;50.626;12.922;2024-01-25T04:42:47;18.40;;;5.53;;
14167;SDS011;7163;50.626;12.922;2024-01-25T05:08:46;23.50;;;5.43;;
14167;SDS011;7163;50.626;12.922;2024-01-25T05:13:47;36.13;;;6.47;;
14167;SDS011;7163;50.626;12.922;2024-01-25T05:18:48;24.77;;;6.27;;
14167;SDS011;7163;50.626;12.922;2024-01-25T05:23:48;125.90;;;34.83;;
14167;SDS011;7163;50.626;12.922;2024-01-25T05:28:49;116.47;;;27.30;;
14167;SDS011;7163;50.626;12.922;2024-01-25T05:33:49;73.43;;;18.73;;
14167;SDS011;7163;50.626;12.922;2024-01-25T05:38:50;43.73;;;10.73;;
14167;SDS011;7163;50.626;12.922;2024-01-25T05:43:51;54.37;;;17.23;;
14167;SDS011;7163;50.626;12.922;2024-01-25T05:48:52;25.40;;;6.67;;
14167;SDS011;7163;50.626;12.922;2024-01-25T07:26:57;18.17;;;5.73;;
14167;SDS011;7163;50.626;12.922;2024-01-25T07:31:57;21.70;;;4.80;;
14167;SDS011;7163;50.626;12.922;2024-01-25T07:36:58;15.43;;;5.90;;
14167;SDS011;7163;50.626;12.922;2024-01-25T07:41:58;23.47;;;7.13;;
14167;SDS011;7163;50.626;12.922;2024-01-25T07:46:59;20.67;;;5.53;;
14167;SDS011;7163;50.626;12.922;2024-01-25T07:51:59;20.00;;;5.03;;
14167;SDS011;7163;50.626;12.922;2024-01-25T08:07:20;19.50;;;5.00;;
14167;SDS011;7163;50.626;12.922;2024-01-25T08:17:31;23.07;;;5.57;;
14167;SDS011;7163;50.626;12.922;2024-01-25T08:22:34;23.07;;;5.70;;
14167;SDS011;7163;50.626;12.922;2024-01-25T08:27:35;14.13;;;4.27;;
14167;SDS011;7163;50.626;12.922;2024-01-25T08:32:35;17.90;;;3.57;;
14167;SDS011;7163;50.626;12.922;2024-01-25T08:37:36;18.30;;;4.13;;
14167;SDS011;7163;50.626;12.922;2024-01-25T08:42:38;13.13;;;3.53;;
14167;SDS011;7163;50.626;12.922;2024-01-25T08:47:38;16.47;;;4.27;;
14167;SDS011;7163;50.626;12.922;2024-01-25T08:52:39;21.50;;;4.13;;
14167;SDS011;7163;50.626;12.922;2024-01-25T08:57:41;13.30;;;3.20;;
14167;SDS011;7163;50.626;12.922;2024-01-25T09:02:41;16.60;;;4.07;;
14167;SDS011;7163;50.626;12.922;2024-01-25T09:07:42;17.10;;;4.30;;
14167;SDS011;7163;50.626;12.922;2024-01-25T09:12:45;14.23;;;3.77;;
14167;SDS011;7163;50.626;12.922;2024-01-25T09:17:46;15.83;;;3.77;;
14167;SDS011;7163;50.626;12.922;2024-01-25T09:22:47;16.93;;;3.43;;
14167;SDS011;7163;50.626;12.922;2024-01-25T09:48:28;14.17;;;3.53;;
14167;SDS011;7163;50.626;12.922;2024-01-25T09:53:29;12.47;;;3.90;;
14167;SDS011;7163;50.626;12.922;2024-01-25T09:58:40;11.97;;;3.67;;
14167;SDS011;7163;50.626;12.922;2024-01-25T10:03:48;16.00;;;3.67;;
14167;SDS011;7163;50.626;12.922;2024-01-25T10:08:49;10.27;;;3.37;;
14167;SDS011;7163;50.626;12.922;2024-01-25T10:13:49;12.30;;;3.47;;
14167;SDS011;7163;50.626;12.922;2024-01-25T10:18:51;15.00;;;4.10;;
14167;SDS011;7163;50.626;12.922;2024-01-25T10:23:52;14.17;;;3.67;;
14167;SDS011;7163;50.626;12.922;2024-01-25T10:28:55;14.73;;;4.47;;
14167;SDS011;7163;50.626;12.922;2024-01-25T10:33:55;12.63;;;3.27;;
14167;SDS011;7163;50.626;12.922;2024-01-25T10:59:38;10.37;;;3.10;;
14167;SDS011;7163;50.626;12.922;2024-01-25T11:04:39;9.30;;;3.00;;
14167;SDS011;7163;50.626;12.922;2024-01-25T11:09:40;12.77;;;3.93;;
14167;SDS011;7163;50.626;12.922;2024-01-25T11:14:44;11.77;;;3.73;;
14167;SDS011;7163;50.626;12.922;2024-01-25T11:19:44;10.53;;;2.77;;
14167;SDS011;7163;50.626;12.922;2024-01-25T11:24:45;11.97;;;3.40;;
14167;SDS011;7163;50.626;12.922;2024-01-25T11:29:48;11.93;;;2.97;;
14167;SDS011;7163;50.626;12.922;2024-01-25T11:34:57;8.80;;;2.80;;
14167;SDS011;7163;50.626;12.922;2024-01-25T11:39:58;8.70;;;3.30;;
14167;SDS011;7163;50.626;12.922;2024-01-25T11:44:59;12.07;;;2.93;;
14167;SDS011;7163;50.626;12.922;2024-01-25T11:49:59;11.63;;;3.00;;
14167;SDS011;7163;50.626;12.922;2024-01-25T11:55:03;8.87;;;3.47;;
14167;SDS011;7163;50.626;12.922;2024-01-25T12:00:05;10.77;;;2.73;;
14167;SDS011;7163;50.626;12.922;2024-01-25T12:56:50;14.57;;;4.20;;
14167;SDS011;7163;50.626;12.922;2024-01-25T13:01:51;12.40;;;3.90;;
14167;SDS011;7163;50.626;12.922;2024-01-25T13:06:52;9.30;;;4.33;;
14167;SDS011;7163;50.626;12.922;2024-01-25T13:11:57;11.43;;;3.00;;
14167;SDS011;7163;50.626;12.922;2024-01-25T13:16:58;14.70;;;3.57;;
14167;SDS011;7163;50.626;12.922;2024-01-25T13:21:59;9.20;;;3.03;;
14167;SDS011;7163;50.626;12.922;2024-01-25T13:26:59;9.57;;;3.73;;
14167;SDS011;7163;50.626;12.922;2024-01-25T13:32:00;18.07;;;3.83;;
14167;SDS011;7163;50.626;12.922;2024-01-25T13:37:01;14.20;;;3.23;;
14167;SDS011;7163;50.626;12.922;2024-01-25T13:42:02;17.43;;;4.30;;
14167;SDS011;7163;50.626;12.922;2024-01-25T13:47:02;12.83;;;3.83;;
14167;SDS011;7163;50.626;12.922;2024-01-25T13:52:03;18.03;;;4.10;;
14167;SDS011;7163;50.626;12.922;2024-01-25T13:57:04;14.27;;;3.63;;
14167;SDS011;7163;50.626;12.922;2024-01-25T14:02:05;15.23;;;4.30;;
14167;SDS011;7163;50.626;12.922;2024-01-25T14:07:05;13.27;;;4.57;;
14167;SDS011;7163;50.626;12.922;2024-01-25T14:12:06;15.10;;;4.30;;
14167;SDS011;7163;50.626;12.922;2024-01-25T14:17:07;14.70;;;4.73;;
14167;SDS011;7163;50.626;12.922;2024-01-25T14:22:08;11.03;;;3.63;;
14167;SDS011;7163;50.626;12.922;2024-01-25T14:27:09;18.07;;;5.43;;
14167;SDS011;7163;50.626;12.922;2024-01-25T14:32:09;21.03;;;3.90;;
14167;SDS011;7163;50.626;12.922;2024-01-25T14:53:00;17.13;;;5.17;;
14167;SDS011;7163;50.626;12.922;2024-01-25T14:58:01;14.57;;;5.67;;
14167;SDS011;7163;50.626;12.922;2024-01-25T15:03:02;18.00;;;5.57;;
14167;SDS011;7163;50.626;12.922;2024-01-25T15:08:32;15.57;;;4.73;;
14167;SDS011;7163;50.626;12.922;2024-01-25T15:18:43;17.07;;;5.93;;
14167;SDS011;7163;50.626;12.922;2024-01-25T15:23:44;13.80;;;4.53;;
14167;SDS011;7163;50.626;12.922;2024-01-25T15:28:48;13.37;;;4.97;;
14167;SDS011;7163;50.626;12.922;2024-01-25T15:33:50;17.10;;;5.50;;
14167;SDS011;7163;50.626;12.922;2024-01-25T15:38:53;24.60;;;6.83;;
14167;SDS011;7163;50.626;12.922;2024-01-25T15:43:53;97.13;;;36.87;;
14167;SDS011;7163;50.626;12.922;2024-01-25T15:48:54;42.10;;;18.23;;
14167;SDS011;7163;50.626;12.922;2024-01-25T15:53:55;51.17;;;20.20;;
14167;SDS011;7163;50.626;12.922;2024-01-25T16:04:06;28.00;;;9.53;;
14167;SDS011;7163;50.626;12.922;2024-01-25T16:09:08;26.77;;;9.03;;
14167;SDS011;7163;50.626;12.922;2024-01-25T16:19:19;25.57;;;10.17;;
14167;SDS011;7163;50.626;12.922;2024-01-25T17:05:42;25.57;;;9.93;;
14167;SDS011;7163;50.626;12.922;2024-01-25T17:10:43;22.13;;;6.90;;
14167;SDS011;7163;50.626;12.922;2024-01-25T17:15:44;23.80;;;6.20;;
14167;SDS011;7163;50.626;12.922;2024-01-25T17:20:44;22.27;;;6.43;;
14167;SDS011;7163;50.626;12.922;2024-01-25T17:25:45;20.77;;;8.20;;
14167;SDS011;7163;50.626;12.922;2024-01-25T17:30:45;18.83;;;5.70;;
14167;SDS011;7163;50.626;12.922;2024-01-25T17:35:46;17.20;;;6.40;;
14167;SDS011;7163;50.626;12.922;2024-01-25T17:45:58;17.73;;;6.47;;
14167;SDS011;7163;50.626;12.922;2024-01-25T17:50:59;18.37;;;5.83;;
14167;SDS011;7163;50.626;12.922;2024-01-25T17:55:59;16.00;;;6.00;;
14167;SDS011;7163;50.626;12.922;2024-01-25T18:01:00;22.87;;;6.63;;
14167;SDS011;7163;50.626;12.922;2024-01-25T18:16:21;20.13;;;6.33;;
14167;SDS011;7163;50.626;12.922;2024-01-25T18:21:21;16.93;;;7.03;;
14167;SDS011;7163;50.626;12.922;2024-01-25T18:26:22;13.17;;;5.93;;
14167;SDS011;7163;50.626;12.922;2024-01-25T18:31:24;23.60;;;6.97;;
14167;SDS011;7163;50.626;12.922;2024-01-25T18:36:25;23.50;;;6.20;;
14167;SDS011;7163;50.626;12.922;2024-01-25T18:41:25;18.37;;;5.47;;
14167;SDS011;7163;50.626;12.922;2024-01-25T18:46:26;21.43;;;6.07;;
14167;SDS011;7163;50.626;12.922;2024-01-25T18:51:26;24.67;;;6.87;;
14167;SDS011;7163;50.626;12.922;2024-01-25T18:56:27;16.43;;;5.70;;
14167;SDS011;7163;50.626;12.922;2024-01-25T19:01:28;19.33;;;5.93;;
14167;SDS011;7163;50.626;12.922;2024-01-25T19:06:34;15.93;;;6.30;;
14167;SDS011;7163;50.626;12.922;2024-01-25T19:11:35;20.63;;;6.50;;
14167;SDS011;7163;50.626;12.922;2024-01-25T19:16:36;20.37;;;6.37;;
14167;SDS011;7163;50.626;12.922;2024-01-25T19:21:36;17.27;;;6.60;;
14167;SDS011;7163;50.626;12.922;2024-01-25T19:26:39;26.43;;;7.20;;
14167;SDS011;7163;50.626;12.922;2024-01-25T19:31:40;18.97;;;6.03;;
14167;SDS011;7163;50.626;12.922;2024-01-25T19:36:40;16.53;;;6.50;;
14167;SDS011;7163;50.626;12.922;2024-01-25T19:41:43;22.63;;;5.97;;
14167;SDS011;7163;50.626;12.922;2024-01-25T19:46:43;20.57;;;5.73;;
14167;SDS011;7163;50.626;12.922;2024-01-25T19:51:44;14.43;;;6.80;;
14167;SDS011;7163;50.626;12.922;2024-01-25T20:38:06;24.20;;;6.37;;
14167;SDS011;7163;50.626;12.922;2024-01-25T20:48:16;15.97;;;5.53;;
14167;SDS011;7163;50.626;12.922;2024-01-25T20:53:17;13.87;;;5.40;;
14167;SDS011;7163;50.626;12.922;2024-01-25T20:58:17;25.80;;;6.83;;
14167;SDS011;7163;50.626;12.922;2024-01-25T21:03:17;18.53;;;6.50;;
14167;SDS011;7163;50.626;12.922;2024-01-25T22:20:41;51.60;;;16.80;;
14167;SDS011;7163;50.626;12.922;2024-01-25T22:25:42;37.63;;;13.30;;
14167;SDS011;7163;50.626;12.922;2024-01-25T22:30:42;38.97;;;14.63;;
14167;SDS011;7163;50.626;12.922;2024-01-25T22:35:43;35.10;;;12.20;;
14167;SDS011;7163;50.626;12.922;2024-01-25T22:40:43;30.47;;;10.53;;
14167;SDS011;7163;50.626;12.922;2024-01-25T22:45:44;27.63;;;9.23;;
14167;SDS011;7163;50.626;12.922;2024-01-25T22:50:44;22.27;;;9.23;;
14167;SDS011;7163;50.626;12.922;2024-01-25T22:55:44;23.53;;;10.43;;
14167;SDS011;7163;50.626;12.922;2024-01-25T23:00:45;28.50;;;9.17;;
14167;SDS011;7163;50.626;12.922;2024-01-25T23:05:47;23.43;;;8.87;;
14167;SDS011;7163;50.626;12.922;2024-01-25T23:10:48;21.27;;;7.73;;
14167;SDS011;7163;50.626;12.922;2024-01-25T23:15:49;19.10;;;7.80;;
14167;SDS011;7163;50.626;12.922;2024-01-25T23:20:50;27.20;;;8.27;;
14167;SDS011;7163;50.626;12.922;2024-01-25T23:25:54;21.60;;;8.73;;
14167;SDS011;7163;50.626;12.922;2024-01-25T23:30:55;21.77;;;9.00;;
14167;SDS011;7163;50.626;12.922;2024-01-25T23:35:57;24.10;;;8.57;;
14167;SDS011;7163;50.626;12.922;2024-01-25T23:40:58;32.27;;;10.60;;
14167;SDS011;7163;50.626;12.922;2024-01-25T23:45:59;23.23;;;8.30;;
14167;SDS011;7163;50.626;12.922;2024-01-25T23:51:00;16.70;;;6.80;;
14167;SDS011;7163;50.626;12.922;2024-01-25T23:56:01;21.73;;;7.07;;
